createdAt,value
2023-01-07T00:01:50.007Z,92051.03
2023-01-07T00:04:53.188Z,92046.44
2023-01-07T00:07:56.523Z,92056.03
2023-01-07T00:11:08.173Z,92055.13
2023-01-07T00:14:13.281Z,92061.06
2023-01-07T00:17:16.685Z,92055.66
2023-01-07T00:20:19.932Z,92062.22
2023-01-07T00:23:25.032Z,92067.94
2023-01-07T00:26:32.185Z,92063.16
2023-01-07T00:29:35.741Z,92060.06
2023-01-07T00:33:00.639Z,92068.28
2023-01-07T00:36:09.332Z,92066.13
2023-01-07T00:39:18.261Z,92056.44
2023-01-07T00:42:41.264Z,92074.88
2023-01-07T00:45:45.322Z,92073.31
2023-01-07T00:48:48.856Z,92087.31
2023-01-07T00:51:53.167Z,92092.75
2023-01-07T00:54:56.468Z,92102.28
2023-01-07T00:57:59.988Z,92100.41
2023-01-07T01:01:03.897Z,92098.81
2023-01-07T01:04:08.848Z,92094.44
2023-01-07T01:07:12.640Z,92083.03
2023-01-07T01:10:19.953Z,92079.84
2023-01-07T01:13:23.469Z,92079.31
2023-01-07T01:16:27.028Z,92081.13
2023-01-07T01:19:30.326Z,92082.34
2023-01-07T01:22:33.932Z,92077.47
2023-01-07T01:25:37.298Z,92077.84
2023-01-07T01:28:41.484Z,92086.00
2023-01-07T01:31:45.396Z,92072.84
2023-01-07T01:34:49.529Z,92075.50
2023-01-07T01:37:53.589Z,92075.56
2023-01-07T01:40:56.933Z,92075.63
2023-01-07T01:44:01.106Z,92077.28
2023-01-07T01:47:43.131Z,92078.19
2023-01-07T01:50:49.114Z,92076.38
2023-01-07T01:53:53.832Z,92078.44
2023-01-07T01:57:00.950Z,92066.78
2023-01-07T02:00:06.534Z,92054.81
2023-01-07T02:03:19.741Z,92062.38
2023-01-07T02:06:28.633Z,92042.66
2023-01-07T02:09:33.087Z,92030.94
2023-01-07T02:12:55.838Z,92037.97
2023-01-07T02:16:27.647Z,92031.81
2023-01-07T02:20:16.763Z,92036.22
2023-01-07T02:24:00.880Z,92030.25
2023-01-07T02:27:28.321Z,92038.38
2023-01-07T02:30:52.665Z,92026.97
2023-01-07T02:33:58.552Z,92030.88
2023-01-07T02:37:43.408Z,92035.50
2023-01-07T02:41:16.905Z,92045.81
2023-01-07T02:44:44.977Z,92044.50
2023-01-07T02:47:55.515Z,92042.38
2023-01-07T02:50:58.636Z,92043.91
2023-01-07T02:54:02.570Z,92045.44
2023-01-07T02:57:42.925Z,92043.91
2023-01-07T03:01:02.290Z,92039.06
2023-01-07T03:04:45.653Z,92037.16
2023-01-07T03:08:23.939Z,92033.78
2023-01-07T03:11:31.513Z,92032.06
2023-01-07T03:14:58.261Z,92031.91
2023-01-07T03:18:22.077Z,92026.03
2023-01-07T03:21:26.927Z,92011.19
2023-01-07T03:24:33.316Z,92006.75
2023-01-07T03:27:37.552Z,92001.41
2023-01-07T03:30:42.933Z,92005.97
2023-01-07T03:33:52.974Z,92002.31
2023-01-07T03:37:03.710Z,91996.13
2023-01-07T03:40:11.578Z,91978.75
2023-01-07T03:43:20.471Z,91971.00
2023-01-07T03:46:24.168Z,91978.72
2023-01-07T03:49:27.829Z,91973.34
2023-01-07T03:52:30.909Z,91971.06
2023-01-07T03:55:34.493Z,91967.31
2023-01-07T03:58:38.006Z,91971.31
2023-01-07T04:01:41.303Z,91977.59
2023-01-07T04:04:46.690Z,91984.22
2023-01-07T04:07:49.931Z,91984.28
2023-01-07T04:10:53.787Z,91980.59
2023-01-07T04:14:01.152Z,91979.53
2023-01-07T04:17:06.195Z,91969.34
2023-01-07T04:20:10.936Z,91970.81
2023-01-07T04:23:15.300Z,91971.19
2023-01-07T04:26:20.869Z,91985.47
2023-01-07T04:29:24.002Z,91979.81
2023-01-07T04:32:27.289Z,91977.13
2023-01-07T04:35:30.509Z,91960.09
2023-01-07T04:38:34.089Z,91958.41
2023-01-07T04:41:37.274Z,91953.03
2023-01-07T04:44:40.482Z,91956.84
2023-01-07T04:47:44.116Z,91947.28
2023-01-07T04:50:48.856Z,91948.53
2023-01-07T04:53:52.963Z,91938.91
2023-01-07T04:56:57.251Z,91934.09
2023-01-07T05:00:00.510Z,91933.69
2023-01-07T05:03:03.907Z,91935.13
2023-01-07T05:06:07.535Z,91939.72
2023-01-07T05:09:12.697Z,91939.69
2023-01-07T05:12:16.193Z,91943.53
2023-01-07T05:15:19.874Z,91927.91
2023-01-07T05:18:23.599Z,91924.84
2023-01-07T05:21:28.638Z,91916.75
2023-01-07T05:24:32.245Z,91908.75
2023-01-07T05:27:35.507Z,91909.56
2023-01-07T05:30:40.177Z,91914.13
2023-01-07T05:33:43.806Z,91912.19
2023-01-07T05:36:47.634Z,91914.75
2023-01-07T05:39:51.014Z,91910.38
2023-01-07T05:42:55.923Z,91909.06
2023-01-07T05:45:59.818Z,91925.03
2023-01-07T05:49:02.940Z,91917.72
2023-01-07T05:52:06.094Z,91912.91
2023-01-07T05:55:09.516Z,91912.06
2023-01-07T05:58:12.761Z,91911.44
2023-01-07T06:01:15.991Z,91913.00
2023-01-07T06:04:19.694Z,91916.03
2023-01-07T06:07:23.053Z,91916.88
2023-01-07T06:10:26.555Z,91916.97
2023-01-07T06:13:30.011Z,91914.88
2023-01-07T06:16:33.290Z,91906.78
2023-01-07T06:19:36.645Z,91902.78
2023-01-07T06:22:41.209Z,91908.75
2023-01-07T06:25:44.839Z,91908.94
2023-01-07T06:28:47.921Z,91912.03
2023-01-07T06:31:51.606Z,91913.75
2023-01-07T06:34:54.810Z,91906.53
2023-01-07T06:37:58.196Z,91908.03
2023-01-07T06:41:02.791Z,91905.63
2023-01-07T06:44:06.183Z,91891.94
2023-01-07T06:47:09.291Z,91899.94
2023-01-07T06:50:13.057Z,91894.16
2023-01-07T06:53:16.203Z,91905.56
2023-01-07T06:56:19.331Z,91900.63
2023-01-07T06:59:22.452Z,91911.47
2023-01-07T07:02:27.912Z,91908.47
2023-01-07T07:05:31.394Z,91927.50
2023-01-07T07:08:34.612Z,91916.66
2023-01-07T07:11:37.695Z,91920.16
2023-01-07T07:14:41.273Z,91929.78
2023-01-07T07:17:44.501Z,91936.75
2023-01-07T07:20:48.284Z,91943.56
2023-01-07T07:23:51.477Z,91952.22
2023-01-07T07:26:54.689Z,91958.53
2023-01-07T07:29:57.892Z,91969.81
2023-01-07T07:33:05.871Z,91973.41
2023-01-07T07:36:09.237Z,91969.09
2023-01-07T07:39:13.136Z,91964.28
2023-01-07T07:42:16.360Z,91963.97
2023-01-07T07:45:21.334Z,91968.81
2023-01-07T07:48:24.774Z,91966.31
2023-01-07T07:51:28.095Z,91967.81
2023-01-07T07:54:31.240Z,91966.59
2023-01-07T07:57:34.488Z,91970.34
2023-01-07T08:00:37.673Z,91977.47
2023-01-07T08:03:40.860Z,91987.34
2023-01-07T08:06:44.113Z,91992.63
2023-01-07T08:09:47.338Z,92002.63
2023-01-07T08:12:51.433Z,91994.53
2023-01-07T08:15:54.717Z,91996.56
2023-01-07T08:18:58.108Z,91984.69
2023-01-07T08:22:01.436Z,91991.81
2023-01-07T08:25:04.764Z,91981.53
2023-01-07T08:28:08.109Z,91974.59
2023-01-07T08:31:11.914Z,91972.84
2023-01-07T08:34:17.272Z,91978.47
2023-01-07T08:37:20.324Z,91965.94
2023-01-07T08:40:24.918Z,91954.47
2023-01-07T08:43:28.611Z,91951.34
2023-01-07T08:46:31.818Z,91958.06
2023-01-07T08:49:35.044Z,91946.41
2023-01-07T08:52:38.229Z,91955.59
2023-01-07T08:55:41.450Z,91952.06
2023-01-07T08:58:44.665Z,91958.94
2023-01-07T09:01:47.870Z,91979.44
2023-01-07T09:04:51.135Z,91977.81
2023-01-07T09:07:54.897Z,91973.50
2023-01-07T09:10:58.226Z,91968.41
2023-01-07T09:14:01.383Z,91977.34
2023-01-07T09:17:04.850Z,91981.41
2023-01-07T09:20:08.862Z,91986.16
2023-01-07T09:23:12.048Z,91979.31
2023-01-07T09:26:15.394Z,91990.47
2023-01-07T09:29:19.058Z,91982.19
2023-01-07T09:32:22.686Z,91992.50
2023-01-07T09:35:27.382Z,91985.44
2023-01-07T09:38:30.673Z,91984.19
2023-01-07T09:41:59.762Z,91986.22
2023-01-07T09:45:17.959Z,91994.78
2023-01-07T09:48:43.920Z,91998.75
2023-01-07T09:51:56.949Z,91995.66
2023-01-07T09:55:07.958Z,92022.72
2023-01-07T09:58:17.350Z,92022.69
2023-01-07T10:01:32.614Z,92022.50
2023-01-07T10:04:59.488Z,92023.16
2023-01-07T10:08:31.986Z,92027.59
2023-01-07T10:12:12.566Z,92016.88
2023-01-07T10:15:43.180Z,92028.47
2023-01-07T10:19:46.821Z,92034.50
2023-01-07T10:22:58.865Z,92020.16
2023-01-07T10:26:04.071Z,92015.91
2023-01-07T10:29:40.866Z,92014.69
2023-01-07T10:32:46.668Z,92022.16
2023-01-07T10:36:01.265Z,92014.16
2023-01-07T10:39:23.226Z,92012.53
2023-01-07T10:42:56.261Z,92009.34
2023-01-07T10:46:17.826Z,92021.41
2023-01-07T10:49:54.327Z,92026.72
2023-01-07T10:53:03.668Z,92029.09
2023-01-07T10:56:11.752Z,92034.34
2023-01-07T10:59:24.452Z,92037.75
2023-01-07T11:02:28.133Z,92040.25
2023-01-07T11:05:39.241Z,92033.66
2023-01-07T11:08:44.223Z,92026.72
2023-01-07T11:11:48.440Z,92037.47
2023-01-07T11:14:54.319Z,92035.88
2023-01-07T11:18:20.280Z,92050.78
2023-01-07T11:21:43.061Z,92043.75
2023-01-07T11:24:47.575Z,92034.31
2023-01-07T11:27:51.518Z,92034.94
2023-01-07T11:31:00.636Z,92023.03
2023-01-07T11:34:04.750Z,92025.34
2023-01-07T11:37:11.774Z,92031.00
2023-01-07T11:40:14.953Z,92031.97
2023-01-07T11:43:19.063Z,92033.97
2023-01-07T11:46:25.282Z,92028.19
2023-01-07T11:49:46.275Z,92038.50
2023-01-07T11:53:19.217Z,92049.91
2023-01-07T11:56:22.438Z,92057.66
2023-01-07T11:59:30.023Z,92059.38
2023-01-07T12:02:33.076Z,92055.78
2023-01-07T12:05:36.387Z,92074.00
2023-01-07T12:08:50.412Z,92066.63
2023-01-07T12:11:55.965Z,92074.91
2023-01-07T12:15:05.893Z,92073.28
2023-01-07T12:18:09.749Z,92086.31
2023-01-07T12:21:26.633Z,92088.09
2023-01-07T12:24:59.468Z,92091.78
2023-01-07T12:28:13.715Z,92088.56
2023-01-07T12:31:31.877Z,92093.13
2023-01-07T12:34:56.357Z,92109.31
2023-01-07T12:38:26.027Z,92108.53
2023-01-07T12:41:38.272Z,92120.50
2023-01-07T12:44:47.401Z,92140.75
2023-01-07T12:47:55.894Z,92145.28
2023-01-07T12:51:03.651Z,92151.09
2023-01-07T12:54:23.410Z,92150.47
2023-01-07T12:57:33.802Z,92148.06
2023-01-07T13:00:45.088Z,92151.69
2023-01-07T13:03:58.313Z,92154.97
2023-01-07T13:07:10.105Z,92155.19
2023-01-07T13:10:26.091Z,92161.16
2023-01-07T13:13:44.761Z,92166.00
2023-01-07T13:16:48.049Z,92169.84
2023-01-07T13:19:52.356Z,92169.13
2023-01-07T13:22:57.140Z,92172.34
2023-01-07T13:26:38.790Z,92196.69
2023-01-07T13:30:14.167Z,92192.91
2023-01-07T13:33:28.741Z,92196.88
2023-01-07T13:36:39.978Z,92185.88
2023-01-07T13:39:55.351Z,92188.53
2023-01-07T13:43:03.882Z,92194.03
2023-01-07T13:46:15.774Z,92193.53
2023-01-07T13:49:28.715Z,92211.91
2023-01-07T13:52:35.484Z,92218.06
2023-01-07T13:55:43.861Z,92211.31
2023-01-07T13:58:48.556Z,92203.19
2023-01-07T14:02:24.261Z,92194.56
2023-01-07T14:05:30.180Z,92189.06
2023-01-07T14:08:34.280Z,92185.38
2023-01-07T14:11:39.512Z,92203.75
2023-01-07T14:15:14.120Z,92199.22
2023-01-07T14:18:41.017Z,92216.16
2023-01-07T14:21:49.047Z,92216.28
2023-01-07T14:25:23.719Z,92223.59
2023-01-07T14:28:43.690Z,92221.81
2023-01-07T14:31:48.836Z,92223.03
2023-01-07T14:35:17.911Z,92229.69
2023-01-07T14:38:33.133Z,92229.97
2023-01-07T14:41:36.873Z,92241.00
2023-01-07T14:44:42.866Z,92247.91
2023-01-07T14:47:46.063Z,92256.69
2023-01-07T14:51:26.607Z,92251.72
2023-01-07T14:54:38.641Z,92259.03
2023-01-07T14:58:06.196Z,92265.16
2023-01-07T15:01:22.859Z,92274.75
2023-01-07T15:04:59.884Z,92283.78
2023-01-07T15:08:26.998Z,92283.81
2023-01-07T15:11:50.912Z,92285.63
2023-01-07T15:15:30.888Z,92304.81
2023-01-07T15:18:48.365Z,92313.06
2023-01-07T15:22:01.836Z,92317.59
2023-01-07T15:25:32.941Z,92324.53
2023-01-07T15:28:45.048Z,92323.06
2023-01-07T15:32:06.098Z,92322.28
2023-01-07T15:35:32.625Z,92323.22
2023-01-07T15:38:49.600Z,92323.09
2023-01-07T15:41:57.378Z,92327.50
2023-01-07T15:45:01.189Z,92335.13
2023-01-07T15:48:12.073Z,92331.47
2023-01-07T15:51:19.405Z,92342.13
2023-01-07T15:54:43.372Z,92345.22
2023-01-07T15:57:47.666Z,92346.41
2023-01-07T16:00:53.429Z,92357.63
2023-01-07T16:03:58.471Z,92353.47
2023-01-07T16:07:02.295Z,92360.38
2023-01-07T16:10:20.535Z,92359.28
2023-01-07T16:13:24.845Z,92360.78
2023-01-07T16:16:31.039Z,92368.69
2023-01-07T16:19:35.205Z,92372.06
2023-01-07T16:22:42.608Z,92372.72
2023-01-07T16:26:20.893Z,92384.72
2023-01-07T16:29:55.674Z,92384.31
2023-01-07T16:32:59.977Z,92390.34
2023-01-07T16:36:08.654Z,92394.09
2023-01-07T16:39:24.186Z,92392.66
2023-01-07T16:42:27.948Z,92394.13
2023-01-07T16:45:36.410Z,92395.22
2023-01-07T16:48:39.623Z,92391.34
2023-01-07T16:51:45.111Z,92408.28
2023-01-07T16:54:49.622Z,92408.84
2023-01-07T16:57:52.835Z,92406.19
2023-01-07T17:00:58.338Z,92407.66
2023-01-07T17:04:08.514Z,92417.41
2023-01-07T17:07:32.184Z,92421.28
2023-01-07T17:10:39.044Z,92421.53
2023-01-07T17:13:42.913Z,92426.31
2023-01-07T17:17:04.014Z,92428.16
2023-01-07T17:20:19.656Z,92432.69
2023-01-07T17:23:26.383Z,92430.41
2023-01-07T17:26:40.565Z,92441.63
2023-01-07T17:29:44.154Z,92439.50
2023-01-07T17:32:50.084Z,92449.50
2023-01-07T17:35:54.925Z,92455.41
2023-01-07T17:38:58.324Z,92449.53
2023-01-07T17:42:19.419Z,92450.72
2023-01-07T17:45:22.512Z,92454.50
2023-01-07T17:48:25.797Z,92453.16
2023-01-07T17:51:29.654Z,92456.75
2023-01-07T17:54:32.938Z,92457.69
2023-01-07T17:57:36.283Z,92466.63
2023-01-07T18:00:41.462Z,92473.69
2023-01-07T18:03:46.986Z,92478.75
2023-01-07T18:06:50.302Z,92491.44
2023-01-07T18:09:53.498Z,92503.22
2023-01-07T18:12:56.637Z,92513.19
2023-01-07T18:16:00.479Z,92519.34
2023-01-07T18:19:03.582Z,92518.56
2023-01-07T18:22:06.745Z,92524.03
2023-01-07T18:25:22.180Z,92520.28
2023-01-07T18:28:25.490Z,92528.97
2023-01-07T18:31:28.563Z,92527.63
2023-01-07T18:34:31.778Z,92526.84
2023-01-07T18:37:34.860Z,92533.50
2023-01-07T18:40:38.203Z,92537.25
2023-01-07T18:43:41.793Z,92547.91
2023-01-07T18:46:44.946Z,92550.94
2023-01-07T18:49:48.087Z,92551.38
2023-01-07T18:52:51.277Z,92547.63
2023-01-07T18:56:02.674Z,92553.78
2023-01-07T18:59:06.356Z,92555.41
2023-01-07T19:02:17.837Z,92557.50
2023-01-07T19:05:21.043Z,92549.50
2023-01-07T19:08:24.119Z,92555.50
2023-01-07T19:11:27.266Z,92568.59
2023-01-07T19:14:30.438Z,92565.78
2023-01-07T19:17:33.518Z,92569.91
2023-01-07T19:20:37.287Z,92578.72
2023-01-07T19:23:40.431Z,92585.78
2023-01-07T19:26:47.457Z,92582.31
2023-01-07T19:29:50.721Z,92592.47
2023-01-07T19:32:55.062Z,92594.47
2023-01-07T19:36:06.407Z,92594.47
2023-01-07T19:39:12.938Z,92596.72
2023-01-07T19:42:16.367Z,92597.13
2023-01-07T19:45:19.563Z,92607.28
2023-01-07T19:48:23.530Z,92611.16
2023-01-07T19:51:26.881Z,92616.06
2023-01-07T19:54:30.152Z,92619.28
2023-01-07T19:57:33.227Z,92624.22
2023-01-07T20:00:36.646Z,92635.16
2023-01-07T20:03:40.432Z,92628.09
2023-01-07T20:06:44.136Z,92636.50
2023-01-07T20:09:47.341Z,92639.84
2023-01-07T20:12:54.214Z,92645.84
2023-01-07T20:15:57.585Z,92657.31
2023-01-07T20:19:00.852Z,92650.53
2023-01-07T20:22:04.155Z,92650.66
2023-01-07T20:25:09.081Z,92647.88
2023-01-07T20:28:12.244Z,92651.22
2023-01-07T20:31:17.923Z,92659.59
2023-01-07T20:34:21.124Z,92659.34
2023-01-07T20:37:28.522Z,92663.63
2023-01-07T20:40:31.696Z,92666.00
2023-01-07T20:43:36.556Z,92658.94
2023-01-07T20:46:40.574Z,92664.28
2023-01-07T20:49:43.638Z,92667.34
2023-01-07T20:52:46.805Z,92674.28
2023-01-07T20:55:57.133Z,92672.56
2023-01-07T20:59:01.972Z,92675.38
2023-01-07T21:02:05.442Z,92678.31
2023-01-07T21:05:09.136Z,92683.38
2023-01-07T21:08:12.353Z,92690.59
2023-01-07T21:11:18.254Z,92700.34
2023-01-07T21:14:21.376Z,92703.03
2023-01-07T21:17:24.567Z,92699.03
2023-01-07T21:20:27.944Z,92703.56
2023-01-07T21:23:31.093Z,92705.69
2023-01-07T21:26:34.461Z,92699.16
2023-01-07T21:29:37.621Z,92691.97
2023-01-07T21:32:41.820Z,92709.16
2023-01-07T21:35:45.000Z,92709.97
2023-01-07T21:38:52.952Z,92707.97
2023-01-07T21:41:56.022Z,92716.78
2023-01-07T21:44:59.252Z,92714.50
2023-01-07T21:48:02.410Z,92715.31
2023-01-07T21:51:08.321Z,92717.06
2023-01-07T21:54:11.561Z,92714.25
2023-01-07T21:57:14.809Z,92724.53
2023-01-07T22:00:18.141Z,92734.38
2023-01-07T22:03:21.300Z,92731.72
2023-01-07T22:06:27.181Z,92742.53
2023-01-07T22:09:30.317Z,92741.47
2023-01-07T22:12:33.604Z,92740.66
2023-01-07T22:15:40.118Z,92743.19
2023-01-07T22:18:43.254Z,92742.53
2023-01-07T22:21:46.395Z,92740.91
2023-01-07T22:24:49.566Z,92747.06
2023-01-07T22:28:00.510Z,92738.38
2023-01-07T22:31:13.547Z,92737.44
2023-01-07T22:34:16.580Z,92745.72
2023-01-07T22:37:22.372Z,92749.75
2023-01-07T22:40:25.557Z,92741.75
2023-01-07T22:43:28.858Z,92744.72
2023-01-07T22:46:33.558Z,92748.44
2023-01-07T22:49:36.928Z,92754.56
2023-01-07T22:52:40.179Z,92757.34
2023-01-07T22:55:45.470Z,92761.91
2023-01-07T22:58:48.633Z,92763.66
2023-01-07T23:01:51.853Z,92769.91
2023-01-07T23:04:54.976Z,92774.97
2023-01-07T23:08:01.143Z,92774.69
2023-01-07T23:11:04.887Z,92789.91
2023-01-07T23:14:08.030Z,92793.34
2023-01-07T23:17:11.365Z,92789.19
2023-01-07T23:20:14.551Z,92788.81
2023-01-07T23:23:17.913Z,92784.94
2023-01-07T23:26:20.949Z,92785.63
2023-01-07T23:29:24.402Z,92776.66
2023-01-07T23:32:27.610Z,92776.16
2023-01-07T23:35:30.757Z,92785.31
2023-01-07T23:38:34.565Z,92788.69
2023-01-07T23:41:37.920Z,92792.94
2023-01-07T23:44:41.004Z,92792.22
2023-01-07T23:47:44.218Z,92794.31
2023-01-07T23:50:47.265Z,92787.25
2023-01-07T23:53:50.958Z,92784.34
2023-01-07T23:56:54.167Z,92795.97
2023-01-07T23:59:57.330Z,92795.69
